Denhart, Iowa
Current Conditions -  °F | °C
As of 9:55 AM on Sunday 23 Nov 2014 (Local Time) from KCAV Reporting Station
Haze Haze  
Wind Chill: 52°   Ceiling: 400
Heat Index: 52°   Visibility: 5mi
Dew Point: 52°   Wind: 13mph
Humidity: 100%   Direction: 180°S
Pressure: 29.47"   Gusts: NA
Location:  42.9524°N, 93.7361°W
Report Text: KCAV 231555Z AUTO 18011KT 5SM BR OVC004 11/11 A2947 RMK AO2
Loading
Personal Weather Stations






























Interactive Weather Map New forecast layout! Learn more

10-Day Weather Forecast

Advertisements
Track Severe Weather on mobile